createdAt,value
2017-01-09T00:00:10.965Z,925.28
2017-01-09T00:00:25.770Z,925.32
2017-01-09T00:00:40.590Z,925.26
2017-01-09T00:00:55.387Z,925.26
2017-01-09T00:01:10.200Z,925.27
2017-01-09T00:01:25.004Z,925.28
2017-01-09T00:01:39.809Z,925.26
2017-01-09T00:01:54.704Z,925.26
2017-01-09T00:02:09.524Z,925.25
2017-01-09T00:02:24.333Z,925.26
2017-01-09T00:02:39.149Z,925.26
2017-01-09T00:02:54.137Z,925.29
2017-01-09T00:03:08.994Z,925.27
2017-01-09T00:03:23.729Z,925.29
2017-01-09T00:03:38.553Z,925.31
2017-01-09T00:03:53.462Z,925.31
2017-01-09T00:04:08.176Z,925.33
2017-01-09T00:04:23.019Z,925.31
2017-01-09T00:04:37.867Z,925.35
2017-01-09T00:04:52.659Z,925.35
2017-01-09T00:05:07.499Z,925.36
2017-01-09T00:05:22.308Z,925.37
2017-01-09T00:05:37.046Z,925.4
2017-01-09T00:05:51.900Z,925.37
2017-01-09T00:06:06.638Z,925.39
2017-01-09T00:06:21.570Z,925.42
2017-01-09T00:06:36.308Z,925.43
2017-01-09T00:06:51.146Z,925.4
2017-01-09T00:07:05.920Z,925.39
2017-01-09T00:07:20.764Z,925.42
2017-01-09T00:07:35.557Z,925.45
2017-01-09T00:07:50.296Z,925.42
2017-01-09T00:08:05.124Z,925.43
2017-01-09T00:08:19.986Z,925.44
2017-01-09T00:08:34.818Z,925.41
2017-01-09T00:08:49.749Z,925.46
2017-01-09T00:09:04.616Z,925.44
2017-01-09T00:09:19.368Z,925.45
2017-01-09T00:09:34.129Z,925.43
2017-01-09T00:09:48.972Z,925.44
2017-01-09T00:10:03.801Z,925.44
2017-01-09T00:10:18.600Z,925.43
2017-01-09T00:10:33.391Z,925.45
2017-01-09T00:10:48.205Z,925.45
2017-01-09T00:11:03.028Z,925.45
2017-01-09T00:11:17.756Z,925.46
2017-01-09T00:11:32.565Z,925.46
2017-01-09T00:11:47.282Z,925.46
2017-01-09T00:12:02.122Z,925.44
2017-01-09T00:12:16.914Z,925.45
2017-01-09T00:12:31.682Z,925.47
2017-01-09T00:12:46.490Z,925.46
2017-01-09T00:13:01.239Z,925.45
2017-01-09T00:13:16.080Z,925.48
2017-01-09T00:13:30.974Z,925.44
2017-01-09T00:13:45.725Z,925.45
2017-01-09T00:14:00.520Z,925.41
2017-01-09T00:14:15.383Z,925.44
2017-01-09T00:14:30.190Z,925.44
2017-01-09T00:14:44.952Z,925.43
2017-01-09T00:14:59.813Z,925.42
2017-01-09T00:15:14.623Z,925.43
2017-01-09T00:15:29.418Z,925.38
2017-01-09T00:15:44.294Z,925.44
2017-01-09T00:15:59.057Z,925.43
2017-01-09T00:16:13.945Z,925.41
2017-01-09T00:16:28.773Z,925.41
2017-01-09T00:16:43.666Z,925.43
2017-01-09T00:16:58.537Z,925.39
2017-01-09T00:17:13.309Z,925.43
2017-01-09T00:17:28.076Z,925.38
2017-01-09T00:17:42.852Z,925.42
2017-01-09T00:17:57.733Z,925.42
2017-01-09T00:18:12.560Z,925.4
2017-01-09T00:18:27.345Z,925.41
2017-01-09T00:18:42.146Z,925.36
2017-01-09T00:18:56.948Z,925.4
2017-01-09T00:19:11.774Z,925.37
2017-01-09T00:19:26.588Z,925.37
2017-01-09T00:19:41.440Z,925.35
2017-01-09T00:19:56.814Z,925.38
2017-01-09T00:20:11.646Z,925.35
2017-01-09T00:20:26.451Z,925.36
2017-01-09T00:20:41.273Z,925.36
2017-01-09T00:20:56.128Z,925.36
2017-01-09T00:21:10.882Z,925.37
2017-01-09T00:21:26.006Z,925.39
2017-01-09T00:21:40.817Z,925.37
2017-01-09T00:21:55.615Z,925.37
2017-01-09T00:22:10.428Z,925.37
2017-01-09T00:22:25.258Z,925.38
2017-01-09T00:22:40.172Z,925.37
2017-01-09T00:22:55.047Z,925.37
2017-01-09T00:23:09.846Z,925.37
2017-01-09T00:23:24.658Z,925.39
2017-01-09T00:23:39.400Z,925.38
2017-01-09T00:23:54.237Z,925.38
2017-01-09T00:24:09.212Z,925.39
2017-01-09T00:24:23.997Z,925.39
2017-01-09T00:24:38.873Z,925.39
2017-01-09T00:24:53.697Z,925.36
2017-01-09T00:25:08.604Z,925.39
2017-01-09T00:25:23.418Z,925.38
2017-01-09T00:25:38.297Z,925.39
2017-01-09T00:25:53.103Z,925.39
2017-01-09T00:26:07.906Z,925.39
2017-01-09T00:26:22.667Z,925.42
2017-01-09T00:26:37.481Z,925.4
2017-01-09T00:26:52.303Z,925.45
2017-01-09T00:27:07.167Z,925.41
2017-01-09T00:27:21.976Z,925.4
2017-01-09T00:27:36.760Z,925.43
2017-01-09T00:27:51.567Z,925.46
2017-01-09T00:28:06.410Z,925.43
2017-01-09T00:28:21.354Z,925.42
2017-01-09T00:28:36.125Z,925.45
2017-01-09T00:28:50.868Z,925.45
2017-01-09T00:29:05.699Z,925.44
2017-01-09T00:29:20.516Z,925.43
2017-01-09T00:29:35.282Z,925.45
2017-01-09T00:29:50.054Z,925.45
2017-01-09T00:30:04.827Z,925.46
2017-01-09T00:30:19.715Z,925.45
2017-01-09T00:30:34.634Z,925.48
2017-01-09T00:30:49.465Z,925.47
2017-01-09T00:31:04.393Z,925.46
2017-01-09T00:31:19.192Z,925.49
2017-01-09T00:31:33.992Z,925.47
2017-01-09T00:31:48.836Z,925.45
2017-01-09T00:32:03.601Z,925.45
2017-01-09T00:32:18.484Z,925.48
2017-01-09T00:32:33.314Z,925.47
2017-01-09T00:32:48.172Z,925.49
2017-01-09T00:33:03.073Z,925.48
2017-01-09T00:33:17.873Z,925.48
2017-01-09T00:33:32.670Z,925.5
2017-01-09T00:33:47.483Z,925.51
2017-01-09T00:34:02.309Z,925.5
2017-01-09T00:34:17.162Z,925.48
2017-01-09T00:34:31.964Z,925.52
2017-01-09T00:34:46.727Z,925.51
2017-01-09T00:35:01.647Z,925.53
2017-01-09T00:35:16.345Z,925.53
2017-01-09T00:35:31.154Z,925.54
2017-01-09T00:35:45.965Z,925.57
2017-01-09T00:36:00.802Z,925.55
2017-01-09T00:36:15.646Z,925.55
2017-01-09T00:36:30.760Z,925.53
2017-01-09T00:36:45.628Z,925.57
2017-01-09T00:37:00.418Z,925.55
2017-01-09T00:37:15.230Z,925.53
2017-01-09T00:37:30.047Z,925.58
2017-01-09T00:37:44.802Z,925.55
2017-01-09T00:37:59.568Z,925.58
2017-01-09T00:38:14.421Z,925.56
2017-01-09T00:38:29.264Z,925.54
2017-01-09T00:38:44.037Z,925.57
2017-01-09T00:38:58.842Z,925.56
2017-01-09T00:39:13.635Z,925.55
2017-01-09T00:39:28.436Z,925.57
2017-01-09T00:39:43.271Z,925.57
2017-01-09T00:39:58.079Z,925.56
2017-01-09T00:40:12.906Z,925.58
2017-01-09T00:40:27.761Z,925.57
2017-01-09T00:40:42.605Z,925.59
2017-01-09T00:40:57.417Z,925.54
2017-01-09T00:41:12.209Z,925.57
2017-01-09T00:41:27.030Z,925.59
2017-01-09T00:41:41.775Z,925.58
2017-01-09T00:41:56.652Z,925.55
2017-01-09T00:42:11.437Z,925.58
2017-01-09T00:42:26.286Z,925.59
2017-01-09T00:42:41.125Z,925.62
2017-01-09T00:42:55.907Z,925.6
2017-01-09T00:43:10.665Z,925.58
2017-01-09T00:43:25.403Z,925.59
2017-01-09T00:43:40.317Z,925.56
2017-01-09T00:43:55.159Z,925.58
2017-01-09T00:44:10.035Z,925.57
2017-01-09T00:44:24.805Z,925.56
2017-01-09T00:44:39.602Z,925.57
2017-01-09T00:44:54.469Z,925.57
2017-01-09T00:45:09.266Z,925.58
2017-01-09T00:45:24.022Z,925.59
2017-01-09T00:45:38.880Z,925.58
2017-01-09T00:45:53.686Z,925.57
2017-01-09T00:46:09.122Z,925.57
2017-01-09T00:46:23.933Z,925.56
2017-01-09T00:46:38.709Z,925.57
2017-01-09T00:46:53.535Z,925.6
2017-01-09T00:47:08.411Z,925.6
2017-01-09T00:47:23.300Z,925.6
2017-01-09T00:47:38.106Z,925.63
2017-01-09T00:47:52.945Z,925.58
2017-01-09T00:48:07.768Z,925.6
2017-01-09T00:48:22.594Z,925.58
2017-01-09T00:48:37.417Z,925.6
2017-01-09T00:48:52.168Z,925.64
2017-01-09T00:49:07.079Z,925.64
2017-01-09T00:49:21.901Z,925.6
2017-01-09T00:49:36.701Z,925.61
2017-01-09T00:49:51.517Z,925.59
2017-01-09T00:50:06.332Z,925.63
2017-01-09T00:50:21.201Z,925.65
2017-01-09T00:50:36.019Z,925.62
2017-01-09T00:50:50.877Z,925.61
2017-01-09T00:51:05.681Z,925.64
2017-01-09T00:51:20.493Z,925.61
2017-01-09T00:51:35.535Z,925.62
2017-01-09T00:51:50.362Z,925.65
2017-01-09T00:52:05.122Z,925.65
2017-01-09T00:52:19.902Z,925.65
2017-01-09T00:52:34.722Z,925.65
2017-01-09T00:52:49.517Z,925.63
2017-01-09T00:53:04.329Z,925.63
2017-01-09T00:53:19.088Z,925.61
2017-01-09T00:53:33.859Z,925.64
2017-01-09T00:53:48.637Z,925.65
2017-01-09T00:54:03.430Z,925.64
2017-01-09T00:54:18.208Z,925.65
2017-01-09T00:54:32.941Z,925.62
2017-01-09T00:54:47.737Z,925.66
2017-01-09T00:55:02.490Z,925.65
2017-01-09T00:55:17.359Z,925.65
2017-01-09T00:55:32.177Z,925.63
2017-01-09T00:55:46.967Z,925.64
2017-01-09T00:56:01.749Z,925.65
2017-01-09T00:56:16.480Z,925.64
2017-01-09T00:56:31.315Z,925.63
2017-01-09T00:56:46.159Z,925.68
2017-01-09T00:57:00.992Z,925.65
2017-01-09T00:57:15.786Z,925.64
2017-01-09T00:57:30.625Z,925.63
2017-01-09T00:57:45.427Z,925.67
2017-01-09T00:58:00.159Z,925.62
2017-01-09T00:58:15.010Z,925.64
2017-01-09T00:58:29.825Z,925.65
2017-01-09T00:58:44.664Z,925.63
2017-01-09T00:58:59.473Z,925.63
2017-01-09T00:59:14.300Z,925.66
2017-01-09T00:59:29.144Z,925.63
2017-01-09T00:59:44.005Z,925.64
2017-01-09T00:59:58.810Z,925.66
2017-01-09T01:00:13.567Z,925.64
2017-01-09T01:00:28.366Z,925.64
2017-01-09T01:00:43.190Z,925.66
2017-01-09T01:00:58.159Z,925.65
2017-01-09T01:01:12.954Z,925.64
2017-01-09T01:01:27.761Z,925.63
2017-01-09T01:01:42.568Z,925.61
2017-01-09T01:01:57.324Z,925.63
2017-01-09T01:02:12.379Z,925.57
2017-01-09T01:02:27.203Z,925.61
2017-01-09T01:02:41.989Z,925.61
2017-01-09T01:02:56.758Z,925.57
2017-01-09T01:03:11.596Z,925.58
2017-01-09T01:03:26.425Z,925.57
2017-01-09T01:03:41.205Z,925.58
2017-01-09T01:03:56.147Z,925.56
2017-01-09T01:04:11.046Z,925.55
2017-01-09T01:04:25.905Z,925.57
2017-01-09T01:04:40.768Z,925.57
2017-01-09T01:04:55.571Z,925.57
2017-01-09T01:05:10.363Z,925.54
2017-01-09T01:05:25.173Z,925.56
2017-01-09T01:05:39.975Z,925.56
2017-01-09T01:05:54.792Z,925.5
2017-01-09T01:06:09.790Z,925.52
2017-01-09T01:06:24.550Z,925.51
2017-01-09T01:06:39.725Z,925.53
2017-01-09T01:06:54.482Z,925.52
2017-01-09T01:07:09.268Z,925.51
2017-01-09T01:07:24.107Z,925.53
2017-01-09T01:07:38.873Z,925.55
2017-01-09T01:07:53.806Z,925.53
2017-01-09T01:08:08.626Z,925.51
2017-01-09T01:08:23.439Z,925.52
2017-01-09T01:08:38.232Z,925.52
2017-01-09T01:08:53.091Z,925.53
2017-01-09T01:09:07.985Z,925.48
2017-01-09T01:09:22.849Z,925.49
2017-01-09T01:09:37.686Z,925.5
2017-01-09T01:09:52.487Z,925.48
2017-01-09T01:10:07.329Z,925.48
2017-01-09T01:10:22.169Z,925.47
2017-01-09T01:10:37.173Z,925.48
2017-01-09T01:10:51.987Z,925.48
2017-01-09T01:11:06.778Z,925.49
2017-01-09T01:11:21.603Z,925.47
2017-01-09T01:11:36.450Z,925.46
2017-01-09T01:11:51.278Z,925.48
2017-01-09T01:12:06.151Z,925.47
2017-01-09T01:12:20.993Z,925.46
2017-01-09T01:12:35.817Z,925.5
2017-01-09T01:12:50.661Z,925.46
2017-01-09T01:13:05.524Z,925.49
2017-01-09T01:13:20.319Z,925.48
2017-01-09T01:13:35.042Z,925.47
2017-01-09T01:13:49.808Z,925.47
2017-01-09T01:14:04.630Z,925.48
2017-01-09T01:14:19.511Z,925.47
2017-01-09T01:14:34.390Z,925.47
2017-01-09T01:14:49.260Z,925.46
2017-01-09T01:15:04.148Z,925.48
2017-01-09T01:15:19.053Z,925.49
2017-01-09T01:15:33.893Z,925.49
2017-01-09T01:15:48.735Z,925.48
2017-01-09T01:16:03.564Z,925.51
2017-01-09T01:16:18.390Z,925.51
2017-01-09T01:16:33.245Z,925.5
2017-01-09T01:16:48.011Z,925.5
2017-01-09T01:17:02.815Z,925.5
2017-01-09T01:17:17.638Z,925.54
2017-01-09T01:17:32.483Z,925.52
2017-01-09T01:17:47.273Z,925.54
2017-01-09T01:18:02.153Z,925.53
2017-01-09T01:18:17.111Z,925.49
2017-01-09T01:18:31.976Z,925.5
2017-01-09T01:18:46.826Z,925.54
2017-01-09T01:19:01.684Z,925.55
2017-01-09T01:19:16.516Z,925.52
2017-01-09T01:19:31.382Z,925.53
2017-01-09T01:19:46.183Z,925.52
2017-01-09T01:20:00.949Z,925.55
2017-01-09T01:20:15.806Z,925.56
2017-01-09T01:20:31.267Z,925.55
2017-01-09T01:20:46.127Z,925.54
2017-01-09T01:21:00.983Z,925.56
2017-01-09T01:21:15.756Z,925.56
2017-01-09T01:21:30.540Z,925.54
2017-01-09T01:21:45.323Z,925.55
2017-01-09T01:22:00.465Z,925.56
2017-01-09T01:22:15.237Z,925.54
2017-01-09T01:22:30.013Z,925.59
2017-01-09T01:22:44.845Z,925.53
2017-01-09T01:22:59.688Z,925.52
2017-01-09T01:23:14.549Z,925.54
2017-01-09T01:23:29.408Z,925.56
2017-01-09T01:23:44.178Z,925.58
2017-01-09T01:23:59.208Z,925.53
2017-01-09T01:24:14.005Z,925.54
2017-01-09T01:24:28.822Z,925.57
2017-01-09T01:24:43.834Z,925.54
2017-01-09T01:24:58.684Z,925.53
2017-01-09T01:25:13.561Z,925.57
2017-01-09T01:25:28.407Z,925.53
2017-01-09T01:25:43.245Z,925.56
2017-01-09T01:25:58.072Z,925.57
2017-01-09T01:26:12.918Z,925.57
2017-01-09T01:26:27.728Z,925.53
2017-01-09T01:26:42.538Z,925.55
2017-01-09T01:26:57.468Z,925.53
2017-01-09T01:27:12.269Z,925.53
2017-01-09T01:27:27.093Z,925.53
2017-01-09T01:27:41.928Z,925.57
2017-01-09T01:27:56.769Z,925.55
2017-01-09T01:28:11.570Z,925.56
2017-01-09T01:28:26.337Z,925.55
2017-01-09T01:28:41.164Z,925.53
2017-01-09T01:28:56.040Z,925.53
2017-01-09T01:29:10.875Z,925.51
2017-01-09T01:29:25.716Z,925.53
2017-01-09T01:29:40.520Z,925.51
2017-01-09T01:29:55.434Z,925.53
2017-01-09T01:30:10.276Z,925.53
2017-01-09T01:30:25.095Z,925.51
2017-01-09T01:30:39.963Z,925.53
2017-01-09T01:30:54.767Z,925.52
2017-01-09T01:31:09.612Z,925.5
2017-01-09T01:31:24.512Z,925.48
2017-01-09T01:31:39.416Z,925.47
2017-01-09T01:31:54.251Z,925.48
2017-01-09T01:32:09.081Z,925.48
2017-01-09T01:32:23.865Z,925.44
2017-01-09T01:32:38.637Z,925.46
2017-01-09T01:32:53.392Z,925.44
2017-01-09T01:33:08.198Z,925.44
2017-01-09T01:33:23.045Z,925.42
2017-01-09T01:33:37.819Z,925.47
2017-01-09T01:33:52.626Z,925.43
2017-01-09T01:34:07.475Z,925.46
2017-01-09T01:34:22.319Z,925.43
2017-01-09T01:34:37.152Z,925.45
2017-01-09T01:34:52.036Z,925.43
2017-01-09T01:35:06.959Z,925.46
2017-01-09T01:35:21.744Z,925.46
2017-01-09T01:35:36.583Z,925.45
2017-01-09T01:35:51.427Z,925.43
2017-01-09T01:36:06.298Z,925.46
2017-01-09T01:36:21.132Z,925.44
2017-01-09T01:36:35.918Z,925.42
2017-01-09T01:36:50.749Z,925.42
2017-01-09T01:37:05.765Z,925.43
2017-01-09T01:37:20.591Z,925.44
2017-01-09T01:37:35.328Z,925.45
2017-01-09T01:37:50.219Z,925.42
2017-01-09T01:38:05.029Z,925.43
2017-01-09T01:38:19.916Z,925.42
2017-01-09T01:38:34.768Z,925.41
2017-01-09T01:38:49.592Z,925.44
2017-01-09T01:39:04.413Z,925.44
2017-01-09T01:39:19.154Z,925.44
2017-01-09T01:39:33.985Z,925.44
2017-01-09T01:39:48.827Z,925.44
2017-01-09T01:40:03.610Z,925.45
2017-01-09T01:40:18.385Z,925.44
2017-01-09T01:40:33.184Z,925.42
2017-01-09T01:40:47.963Z,925.44
2017-01-09T01:41:02.823Z,925.44
2017-01-09T01:41:17.646Z,925.43
2017-01-09T01:41:32.479Z,925.45
2017-01-09T01:41:47.222Z,925.47
2017-01-09T01:42:01.984Z,925.44
2017-01-09T01:42:16.789Z,925.44
2017-01-09T01:42:31.607Z,925.47
2017-01-09T01:42:46.389Z,925.46
2017-01-09T01:43:01.143Z,925.48
2017-01-09T01:43:15.963Z,925.46
2017-01-09T01:43:30.741Z,925.46
2017-01-09T01:43:45.507Z,925.45
2017-01-09T01:44:00.345Z,925.45
2017-01-09T01:44:15.178Z,925.45
2017-01-09T01:44:29.994Z,925.47
2017-01-09T01:44:44.800Z,925.46
2017-01-09T01:44:59.594Z,925.5
2017-01-09T01:45:14.448Z,925.48
2017-01-09T01:45:29.257Z,925.44
2017-01-09T01:45:44.129Z,925.46
2017-01-09T01:45:58.900Z,925.46
2017-01-09T01:46:13.739Z,925.45
2017-01-09T01:46:28.498Z,925.51
2017-01-09T01:46:43.308Z,925.49
2017-01-09T01:46:58.129Z,925.49
2017-01-09T01:47:12.935Z,925.45
2017-01-09T01:47:27.777Z,925.47
2017-01-09T01:47:42.529Z,925.47
2017-01-09T01:47:57.313Z,925.5
2017-01-09T01:48:12.002Z,925.48
2017-01-09T01:48:26.864Z,925.5
2017-01-09T01:48:41.757Z,925.49
2017-01-09T01:48:56.544Z,925.46
2017-01-09T01:49:11.409Z,925.48
2017-01-09T01:49:26.322Z,925.45
2017-01-09T01:49:41.096Z,925.47
2017-01-09T01:49:55.876Z,925.44
2017-01-09T01:50:10.647Z,925.49
2017-01-09T01:50:25.599Z,925.46
2017-01-09T01:50:40.432Z,925.45
2017-01-09T01:50:55.275Z,925.46
2017-01-09T01:51:10.098Z,925.48
2017-01-09T01:51:25.090Z,925.48
2017-01-09T01:51:39.826Z,925.46
2017-01-09T01:51:54.645Z,925.44
2017-01-09T01:52:09.687Z,925.46
2017-01-09T01:52:24.601Z,925.46
2017-01-09T01:52:39.395Z,925.46
2017-01-09T01:52:54.200Z,925.44
2017-01-09T01:53:09.037Z,925.46
2017-01-09T01:53:23.858Z,925.45
2017-01-09T01:53:38.649Z,925.45
2017-01-09T01:53:53.418Z,925.44
2017-01-09T01:54:08.221Z,925.46
2017-01-09T01:54:23.090Z,925.48
2017-01-09T01:54:37.940Z,925.48
2017-01-09T01:54:52.760Z,925.46
2017-01-09T01:55:07.568Z,925.47
2017-01-09T01:55:22.368Z,925.45
2017-01-09T01:55:37.180Z,925.47
2017-01-09T01:55:51.985Z,925.45
2017-01-09T01:56:06.738Z,925.43
2017-01-09T01:56:21.441Z,925.44
2017-01-09T01:56:36.247Z,925.43
2017-01-09T01:56:51.022Z,925.47
2017-01-09T01:57:05.816Z,925.45
2017-01-09T01:57:20.657Z,925.44
2017-01-09T01:57:35.456Z,925.45
2017-01-09T01:57:50.312Z,925.44
2017-01-09T01:58:05.099Z,925.44
2017-01-09T01:58:19.856Z,925.45
2017-01-09T01:58:34.621Z,925.43
2017-01-09T01:58:49.539Z,925.43
2017-01-09T01:59:04.294Z,925.45
2017-01-09T01:59:19.125Z,925.42
2017-01-09T01:59:33.946Z,925.44
2017-01-09T01:59:48.811Z,925.47
2017-01-09T02:00:03.594Z,925.42
2017-01-09T02:00:18.351Z,925.41
2017-01-09T02:00:33.159Z,925.37
2017-01-09T02:00:47.985Z,925.37
2017-01-09T02:01:03.467Z,925.37
2017-01-09T02:01:18.324Z,925.41
2017-01-09T02:01:33.156Z,925.41
2017-01-09T02:01:47.980Z,925.37
2017-01-09T02:02:02.824Z,925.34
2017-01-09T02:02:17.661Z,925.35
2017-01-09T02:02:32.449Z,925.35
2017-01-09T02:02:47.280Z,925.34
2017-01-09T02:03:02.112Z,925.34
2017-01-09T02:03:16.960Z,925.34
2017-01-09T02:03:32.350Z,925.33
2017-01-09T02:03:47.202Z,925.36
2017-01-09T02:04:01.990Z,925.35
2017-01-09T02:04:16.812Z,925.31
2017-01-09T02:04:31.667Z,925.31
2017-01-09T02:04:46.513Z,925.34
2017-01-09T02:05:01.383Z,925.33
2017-01-09T02:05:16.232Z,925.3
2017-01-09T02:05:31.027Z,925.29
2017-01-09T02:05:45.843Z,925.32
2017-01-09T02:06:00.678Z,925.32
2017-01-09T02:06:15.681Z,925.34
2017-01-09T02:06:30.477Z,925.33
2017-01-09T02:06:45.267Z,925.3
2017-01-09T02:07:00.066Z,925.29
2017-01-09T02:07:15.139Z,925.27
2017-01-09T02:07:29.946Z,925.28
2017-01-09T02:07:44.781Z,925.3
2017-01-09T02:07:59.553Z,925.26
2017-01-09T02:08:14.308Z,925.27
2017-01-09T02:08:29.112Z,925.28
2017-01-09T02:08:43.936Z,925.31
2017-01-09T02:08:58.800Z,925.3
2017-01-09T02:09:13.586Z,925.31
2017-01-09T02:09:28.416Z,925.26
2017-01-09T02:09:43.269Z,925.26
2017-01-09T02:09:58.073Z,925.26
2017-01-09T02:10:12.917Z,925.26
2017-01-09T02:10:27.743Z,925.27
2017-01-09T02:10:42.576Z,925.24
2017-01-09T02:10:57.417Z,925.24
2017-01-09T02:11:12.209Z,925.24
2017-01-09T02:11:27.030Z,925.28
2017-01-09T02:11:41.882Z,925.22
2017-01-09T02:11:56.647Z,925.28
2017-01-09T02:12:11.483Z,925.29
2017-01-09T02:12:26.298Z,925.26
2017-01-09T02:12:41.111Z,925.26
2017-01-09T02:12:55.922Z,925.25
2017-01-09T02:13:10.757Z,925.24
2017-01-09T02:13:25.559Z,925.22
2017-01-09T02:13:40.443Z,925.24
2017-01-09T02:13:55.231Z,925.3
2017-01-09T02:14:10.014Z,925.27
2017-01-09T02:14:24.876Z,925.27
2017-01-09T02:14:39.817Z,925.25
2017-01-09T02:14:54.705Z,925.26
2017-01-09T02:15:09.493Z,925.25
2017-01-09T02:15:24.296Z,925.28
2017-01-09T02:15:39.058Z,925.27
2017-01-09T02:15:53.914Z,925.25
2017-01-09T02:16:08.803Z,925.27
2017-01-09T02:16:23.566Z,925.26
2017-01-09T02:16:38.362Z,925.26
2017-01-09T02:16:53.155Z,925.25
2017-01-09T02:17:07.948Z,925.23
2017-01-09T02:17:22.712Z,925.23
2017-01-09T02:17:37.531Z,925.21
2017-01-09T02:17:52.315Z,925.26
2017-01-09T02:18:07.129Z,925.24
2017-01-09T02:18:21.962Z,925.23
2017-01-09T02:18:36.795Z,925.23
2017-01-09T02:18:51.566Z,925.23
2017-01-09T02:19:06.374Z,925.22
2017-01-09T02:19:21.235Z,925.22
2017-01-09T02:19:36.117Z,925.28
2017-01-09T02:19:51.576Z,925.24
2017-01-09T02:20:06.360Z,925.24
2017-01-09T02:20:21.195Z,925.24
2017-01-09T02:20:35.964Z,925.22
2017-01-09T02:20:50.807Z,925.22
2017-01-09T02:21:05.621Z,925.23
2017-01-09T02:21:20.381Z,925.24
2017-01-09T02:21:35.180Z,925.23
2017-01-09T02:21:49.947Z,925.25
2017-01-09T02:22:04.817Z,925.28
2017-01-09T02:22:19.961Z,925.24
2017-01-09T02:22:34.840Z,925.28
2017-01-09T02:22:49.687Z,925.25
2017-01-09T02:23:04.504Z,925.26
2017-01-09T02:23:19.319Z,925.26
2017-01-09T02:23:34.150Z,925.26
2017-01-09T02:23:48.956Z,925.25
2017-01-09T02:24:03.748Z,925.3
2017-01-09T02:24:18.598Z,925.24
2017-01-09T02:24:33.419Z,925.25
2017-01-09T02:24:48.243Z,925.26
2017-01-09T02:25:03.084Z,925.27
2017-01-09T02:25:17.825Z,925.23
2017-01-09T02:25:32.618Z,925.26
2017-01-09T02:25:47.378Z,925.28
2017-01-09T02:26:02.155Z,925.25
2017-01-09T02:26:17.037Z,925.26
2017-01-09T02:26:31.909Z,925.25
2017-01-09T02:26:46.780Z,925.24
2017-01-09T02:27:01.562Z,925.22
2017-01-09T02:27:16.341Z,925.25
2017-01-09T02:27:31.119Z,925.24
2017-01-09T02:27:45.911Z,925.23
2017-01-09T02:28:00.704Z,925.23
2017-01-09T02:28:15.469Z,925.24
2017-01-09T02:28:30.261Z,925.23
2017-01-09T02:28:45.107Z,925.21
2017-01-09T02:28:59.906Z,925.21
2017-01-09T02:29:14.739Z,925.23
2017-01-09T02:29:29.553Z,925.22
2017-01-09T02:29:44.328Z,925.23
2017-01-09T02:29:59.095Z,925.2
2017-01-09T02:30:13.887Z,925.2
2017-01-09T02:30:28.721Z,925.16
2017-01-09T02:30:43.557Z,925.19
2017-01-09T02:30:58.299Z,925.22
2017-01-09T02:31:13.098Z,925.15
2017-01-09T02:31:27.862Z,925.19
2017-01-09T02:31:42.641Z,925.21
2017-01-09T02:31:57.504Z,925.18
2017-01-09T02:32:12.349Z,925.22
2017-01-09T02:32:27.179Z,925.18
2017-01-09T02:32:42.038Z,925.18
2017-01-09T02:32:56.946Z,925.17
2017-01-09T02:33:11.741Z,925.17
2017-01-09T02:33:26.593Z,925.15
2017-01-09T02:33:41.370Z,925.16
2017-01-09T02:33:56.174Z,925.15
2017-01-09T02:34:11.089Z,925.17
2017-01-09T02:34:25.819Z,925.17
2017-01-09T02:34:40.630Z,925.19
2017-01-09T02:34:55.375Z,925.14
2017-01-09T02:35:10.141Z,925.15
2017-01-09T02:35:25.069Z,925.15
2017-01-09T02:35:39.898Z,925.16
2017-01-09T02:35:54.663Z,925.16
2017-01-09T02:36:09.501Z,925.16
2017-01-09T02:36:24.328Z,925.16
2017-01-09T02:36:39.077Z,925.14
2017-01-09T02:36:53.900Z,925.15
2017-01-09T02:37:08.924Z,925.17
2017-01-09T02:37:23.999Z,925.19
2017-01-09T02:37:38.787Z,925.18
2017-01-09T02:37:53.559Z,925.17
2017-01-09T02:38:08.391Z,925.19
2017-01-09T02:38:23.178Z,925.17
2017-01-09T02:38:37.948Z,925.14
2017-01-09T02:38:52.743Z,925.15
2017-01-09T02:39:07.490Z,925.18
2017-01-09T02:39:23.042Z,925.14
2017-01-09T02:39:37.928Z,925.13
2017-01-09T02:39:52.727Z,925.15
2017-01-09T02:40:07.483Z,925.13
2017-01-09T02:40:22.336Z,925.11
2017-01-09T02:40:37.108Z,925.12
2017-01-09T02:40:51.906Z,925.09
2017-01-09T02:41:06.727Z,925.11
2017-01-09T02:41:21.525Z,925.08
2017-01-09T02:41:36.321Z,925.07
2017-01-09T02:41:51.158Z,925.1
2017-01-09T02:42:05.990Z,925.09
2017-01-09T02:42:20.831Z,925.09
2017-01-09T02:42:35.669Z,925.07
2017-01-09T02:42:50.477Z,925.11
2017-01-09T02:43:05.332Z,925.08
2017-01-09T02:43:20.067Z,925.03
2017-01-09T02:43:34.907Z,925.05
2017-01-09T02:43:49.757Z,925.04
2017-01-09T02:44:04.524Z,925.06
2017-01-09T02:44:19.269Z,925.08
2017-01-09T02:44:34.056Z,925.05
2017-01-09T02:44:48.785Z,925.04
2017-01-09T02:45:03.553Z,925.06
2017-01-09T02:45:18.312Z,925
2017-01-09T02:45:33.156Z,925.03
2017-01-09T02:45:48.031Z,925.05
2017-01-09T02:46:02.889Z,925.05
2017-01-09T02:46:17.693Z,925.02
2017-01-09T02:46:32.423Z,925.03
2017-01-09T02:46:47.237Z,925.02
2017-01-09T02:47:02.113Z,925.03
2017-01-09T02:47:16.906Z,925.04
2017-01-09T02:47:31.613Z,925.02
2017-01-09T02:47:46.442Z,925.05
2017-01-09T02:48:01.307Z,925.02
2017-01-09T02:48:16.178Z,925.04
2017-01-09T02:48:31.065Z,925.07
2017-01-09T02:48:45.914Z,925.09
2017-01-09T02:49:00.801Z,925.07
2017-01-09T02:49:15.608Z,925.07
2017-01-09T02:49:30.469Z,925.06
2017-01-09T02:49:45.335Z,925.08
2017-01-09T02:50:00.116Z,925.09
2017-01-09T02:50:15.013Z,925.08
2017-01-09T02:50:29.882Z,925.09
2017-01-09T02:50:44.784Z,925.12
2017-01-09T02:50:59.629Z,925.1
2017-01-09T02:51:14.420Z,925.09
2017-01-09T02:51:29.209Z,925.08
2017-01-09T02:51:44.026Z,925.11
2017-01-09T02:51:58.878Z,925.12
2017-01-09T02:52:13.727Z,925.13
2017-01-09T02:52:28.545Z,925.08
2017-01-09T02:52:43.743Z,925.14
2017-01-09T02:52:58.573Z,925.12
2017-01-09T02:53:13.393Z,925.14
2017-01-09T02:53:28.119Z,925.17
2017-01-09T02:53:42.865Z,925.16
2017-01-09T02:53:57.708Z,925.15
2017-01-09T02:54:12.498Z,925.17
2017-01-09T02:54:27.316Z,925.21
2017-01-09T02:54:42.170Z,925.16
2017-01-09T02:54:56.919Z,925.18
2017-01-09T02:55:11.708Z,925.17
2017-01-09T02:55:26.465Z,925.18
2017-01-09T02:55:41.264Z,925.22
2017-01-09T02:55:56.014Z,925.2
2017-01-09T02:56:11.576Z,925.18
2017-01-09T02:56:26.366Z,925.2
2017-01-09T02:56:41.249Z,925.21
2017-01-09T02:56:56.035Z,925.19
2017-01-09T02:57:10.867Z,925.2
2017-01-09T02:57:25.690Z,925.2
2017-01-09T02:57:40.569Z,925.18
2017-01-09T02:57:55.334Z,925.2
2017-01-09T02:58:10.188Z,925.22
2017-01-09T02:58:25.061Z,925.21
2017-01-09T02:58:39.889Z,925.18
2017-01-09T02:58:54.673Z,925.16
2017-01-09T02:59:09.519Z,925.21
2017-01-09T02:59:24.290Z,925.22
2017-01-09T02:59:39.060Z,925.21
2017-01-09T02:59:53.926Z,925.21
2017-01-09T03:00:08.661Z,925.17
2017-01-09T03:00:23.466Z,925.17
2017-01-09T03:00:38.270Z,925.21
2017-01-09T03:00:53.091Z,925.16
2017-01-09T03:01:07.926Z,925.18
2017-01-09T03:01:22.665Z,925.18
2017-01-09T03:01:37.519Z,925.18
2017-01-09T03:01:52.357Z,925.15
2017-01-09T03:02:07.159Z,925.11
2017-01-09T03:02:22.009Z,925.16
2017-01-09T03:02:36.798Z,925.15
2017-01-09T03:02:51.547Z,925.13
2017-01-09T03:03:06.320Z,925.1
2017-01-09T03:03:21.146Z,925.12
2017-01-09T03:03:35.945Z,925.11
2017-01-09T03:03:50.772Z,925.14
2017-01-09T03:04:05.601Z,925.11
2017-01-09T03:04:20.409Z,925.08
2017-01-09T03:04:35.221Z,925.05
2017-01-09T03:04:50.139Z,925.08
2017-01-09T03:05:04.918Z,925.04
2017-01-09T03:05:19.724Z,925.07